Latest Weather Observations for Kalgoorlie-Boulder

IDW60801

Issued at 11:03 pm WST Saturday 23 January 2021 (issued every 10 minutes, with the page automatically refreshed every 10 minutes)

About weather observations | Map of weather stations | Latest weather observations for WA | Other Formats
Station Details ID: 012038 Name: KALGOORLIE-BOULDER AIRPORT Lat: -30.78 Lon: 121.45 Height: 365.3 m
Data from the previous 72 hours. | See also: Recent months at Kalgoorlie-Boulder
Date/Time
WST
Temp
°C
App
Temp
°C
Dew
Point
°C
Rel
Hum
%
Delta-T
°C
Wind Press
QNH
hPa
Press
MSL
hPa
Rain since
9am
mm
Dir  Spd
km/h
Gust
km/h
Spd
kts
Gust
kts
23/11:00pm 22.8 21.2 20.1 85 1.8 E 28 44 15 24 1002.4 1000.2 3.8
23/10:30pm 23.0 20.6 20.0 83 2.0 E 32 50 17 27 1002.1 999.9 3.8
23/10:00pm 22.8 20.5 20.1 85 1.8 E 32 44 17 24 1002.5 1000.3 3.8
23/09:30pm 22.7 18.4 20.4 87 1.5 ESE 43 57 23 31 1002.7 1000.5 3.8
23/09:00pm 22.2 20.2 20.8 92 0.9 SE 32 48 17 26 1004.1 1001.8 3.8
23/08:49pm 22.2 19.1 20.5 90 1.1 SE 37 48 20 26 1003.6 1001.3 3.6
23/08:37pm 22.3 18.5 20.6 90 1.1 SE 41 63 22 34 1003.6 1001.3 2.6
23/08:30pm 22.1 19.3 20.2 89 1.2 SSE 35 63 19 34 1002.7 1000.5 2.4
23/08:28pm 22.5 19.9 20.0 86 1.6 SSE 33 63 18 34 1002.7 1000.5 2.0
23/08:25pm 22.7 20.7 19.9 84 1.8 S 30 54 16 29 1003.1 1000.8 1.8
23/08:19pm 23.8 21.1 19.3 76 2.9 S 32 52 17 28 1003.2 1000.9 1.2
23/08:11pm 26.9 21.4 16.8 54 6.4 S 41 72 22 39 1003.3 1001.0 0.0
23/08:06pm 28.2 25.7 16.1 47 7.6 SE 24 72 13 39 1001.8 999.6 0.0
23/08:03pm 33.6 33.0 14.6 31 11.9 NNE 11 63 6 34 1001.8 999.6 0.0
23/08:00pm 34.5 34.6 14.4 30 12.6 N 7 17 4 9 1000.8 998.5 0.0
23/07:30pm 34.7 33.1 14.0 28 12.9 N 15 19 8 10 999.9 997.7 0.0
23/07:00pm 35.3 33.3 14.0 28 13.3 NNW 17 26 9 14 999.6 997.4 0.0
23/06:30pm 35.7 33.1 13.8 27 13.6 N 20 30 11 16 999.3 997.1 0.0
23/06:00pm 36.5 34.1 13.9 26 14.2 NW 19 30 10 16 999.0 996.7 0.0
23/05:30pm 36.3 33.9 14.3 27 13.8 NNE 20 28 11 15 998.8 996.5 0.0
23/05:00pm 36.8 34.5 14.7 26 14.0 N 20 28 11 15 998.7 996.4 0.0
23/04:30pm 36.1 33.4 14.7 28 13.5 NNW 22 35 12 19 999.1 996.8 0.0
23/04:00pm 36.7 34.2 14.1 26 14.2 N 20 33 11 18 999.2 996.9 0.0
23/03:30pm 37.9 35.2 14.5 25 14.8 N 22 33 12 18 999.6 997.4 0.0
23/03:00pm 36.8 33.5 14.1 25 14.3 NNW 24 37 13 20 1000.0 997.8 0.0
23/02:30pm 36.3 33.5 14.3 27 13.8 NNW 22 33 12 18 1000.5 998.2 0.0
23/02:00pm 36.2 32.8 14.8 28 13.6 N 26 41 14 22 1000.8 998.5 0.0
23/01:30pm 36.2 33.0 14.2 26 13.8 NNW 24 37 13 20 1001.2 998.9 0.0
23/01:00pm 36.4 33.1 15.0 28 13.6 N 26 44 14 24 1001.6 999.3 0.0
23/12:30pm 34.9 31.9 14.7 29 12.7 NNW 24 35 13 19 1002.1 999.9 0.0
23/12:17pm 35.4 31.6 14.6 28 13.1 N 28 48 15 26 1002.2 1000.0 0.0
23/12:00pm 35.3 31.8 14.6 29 13.1 N 26 44 14 24 1002.5 1000.3 0.0
23/11:44am 34.8 31.0 14.7 30 12.6 N 28 48 15 26 1002.7 1000.5 0.0
23/11:30am 34.8 31.4 14.7 30 12.6 N 26 37 14 20 1003.1 1000.8 0.0
23/11:00am 34.6 31.1 15.5 32 12.2 N 28 39 15 21 1003.5 1001.2 0.0
23/10:30am 33.1 29.2 15.6 35 11.1 N 30 48 16 26 1003.9 1001.6 0.0
23/10:27am 33.0 29.5 15.5 35 11.1 N 28 48 15 26 1003.9 1001.6 0.0
23/10:00am 32.0 28.8 16.3 39 10.0 N 28 39 15 21 1004.4 1002.2 0.0
23/09:30am 31.4 28.1 16.9 41 9.3 N 30 39 16 21 1004.6 1002.4 0.0
23/09:00am 30.4 27.4 16.8 44 8.7 N 28 37 15 20 1005.0 1002.8 0.0
23/08:30am 29.9 27.6 16.7 45 8.4 N 24 35 13 19 1005.1 1002.9 0.0
23/08:00am 28.5 27.1 17.1 50 7.3 NNE 20 30 11 16 1005.1 1002.9 0.0
23/07:30am 26.9 25.4 16.8 54 6.4 NNE 20 28 11 15 1005.0 1002.8 0.0
23/07:00am 26.7 25.3 16.6 54 6.4 NNE 19 28 10 15 1005.0 1002.8 0.0
23/06:30am 26.5 27.8 16.1 52 6.5 E 4 13 2 7 1004.6 1002.4 0.0
23/06:00am 25.9 27.9 15.9 54 6.2 CALM 0 6 0 3 1004.2 1002.0 0.0
23/05:30am 25.8 27.0 15.8 54 6.2 SSW 4 9 2 5 1004.2 1002.0 0.0
23/05:00am 25.9 27.9 15.9 54 6.2 CALM 0 0 0 0 1004.1 1001.8 0.0
23/04:30am 26.2 26.1 15.9 53 6.4 NE 11 15 6 8 1004.2 1002.0 0.0
23/04:00am 26.7 27.1 15.4 50 7.0 NNE 7 11 4 6 1003.7 1001.4 0.0
23/03:30am 27.1 26.4 15.5 49 7.2 N 13 17 7 9 1004.1 1001.8 0.0
23/03:00am 27.4 25.8 15.1 47 7.6 N 17 24 9 13 1004.2 1002.0 0.0
23/02:30am 28.0 26.0 15.0 45 8.0 N 19 26 10 14 1004.4 1002.2 0.0
23/02:00am 28.4 24.3 13.9 41 8.8 N 28 43 15 23 1004.4 1002.2 0.0
23/01:55am 28.6 24.5 13.7 40 9.0 N 28 43 15 23 1004.4 1002.2 0.0
23/01:30am 28.3 26.7 13.8 41 8.8 N 15 20 8 11 1004.9 1002.7 0.0
23/01:00am 28.6 26.4 13.3 39 9.2 NW 17 22 9 12 1004.4 1002.2 0.0
23/12:30am 28.9 26.7 13.2 38 9.4 NNW 17 24 9 13 1004.6 1002.4 0.0
23/12:00am 29.1 26.7 13.7 38 9.4 NNW 19 28 10 15 1004.9 1002.7 0.0
 
Date/Time
WST
Temp
°C
App
Temp
°C
Dew
Point
°C
Rel
Hum
%
Delta-T
°C
Wind Press
QNH
hPa
Press
MSL
hPa
Rain since
9am
mm
Dir  Spd
km/h
Gust
km/h
Spd
kts
Gust
kts
22/11:30pm 29.3 26.4 13.9 39 9.4 N 22 32 12 17 1005.0 1002.8 0.0
22/11:00pm 29.7 26.2 13.5 37 9.8 N 24 37 13 20 1004.9 1002.7 0.0
22/10:30pm 29.9 26.5 13.6 36 9.9 N 24 33 13 18 1004.9 1002.7 0.0
22/10:00pm 30.2 26.9 13.9 37 10.0 N 24 35 13 19 1004.7 1002.5 0.0
22/09:30pm 31.2 28.5 13.0 33 11.0 NNW 19 24 10 13 1004.4 1002.2 0.0
22/09:00pm 30.7 29.5 13.9 36 10.3 NNW 13 20 7 11 1004.4 1002.2 0.0
22/08:30pm 31.1 28.9 13.4 34 10.8 WNW 17 26 9 14 1004.4 1002.2 0.0
22/08:00pm 31.7 28.2 13.5 33 11.2 NW 24 39 13 21 1004.1 1001.8 0.0
22/07:30pm 34.1 30.0 11.3 25 13.6 NNW 24 32 13 17 1002.8 1000.6 0.0
22/07:12pm 32.0 27.5 13.7 33 11.2 N 30 44 16 24 1002.3 1000.1 0.0
22/07:02pm 31.9 26.3 13.2 32 11.4 NNW 35 56 19 30 1002.0 999.8 0.0
22/07:00pm 31.5 25.6 13.7 33 10.9 NNW 37 54 20 29 1002.0 999.8 0.0
22/06:58pm 31.4 25.5 13.6 33 10.9 NNW 37 57 20 31 1001.9 999.7 0.0
22/06:45pm 36.5 32.2 9.2 19 15.9 N 22 63 12 34 1001.3 999.0 0.0
22/06:40pm 38.3 35.2 7.1 15 17.8 NNE 13 19 7 10 1000.7 998.4 0.0
22/06:30pm 38.6 35.1 7.4 15 17.9 NE 15 20 8 11 1000.5 998.2 0.0
22/06:00pm 38.9 37.0 6.6 14 18.4 NNE 6 9 3 5 1000.5 998.2 0.0
22/05:30pm 39.3 37.3 6.9 14 18.5 NNE 7 17 4 9 1000.3 998.0 0.0
22/05:00pm 40.0 37.5 6.4 13 19.2 ESE 9 13 5 7 1000.4 998.1 0.0
22/04:30pm 39.7 37.5 6.1 13 19.0 NW 7 19 4 10 1000.7 998.4 0.0
22/04:00pm 39.9 36.3 5.1 12 19.5 NNW 13 22 7 12 1000.9 998.6 0.0
22/03:30pm 39.5 37.3 6.0 13 18.9 NW 7 19 4 10 1001.2 998.9 0.0
22/03:00pm 39.3 37.3 6.9 14 18.6 SSE 7 11 4 6 1001.8 999.6 0.0
22/02:30pm 37.7 35.6 6.6 15 17.6 NW 7 13 4 7 1002.4 1000.2 0.0
22/02:00pm 37.4 33.2 8.2 17 16.9 NW 20 32 11 17 1003.3 1001.0 0.0
22/01:30pm 39.3 36.3 7.9 15 18.2 WNW 13 22 7 12 1003.5 1001.2 0.0
22/01:00pm 38.5 36.4 8.2 16 17.6 NNE 9 13 5 7 1004.0 1001.7 0.0
22/12:30pm 38.2 35.9 8.9 17 17.1 N 11 20 6 11 1004.5 1002.3 0.0
22/12:00pm 37.3 35.4 9.0 18 16.6 NNE 9 17 5 9 1005.2 1003.0 0.0
22/11:30am 35.6 33.0 9.2 20 15.3 N 13 19 7 10 1005.7 1003.5 0.0
22/11:00am 34.2 31.6 9.4 22 14.4 E 13 20 7 11 1006.4 1004.1 0.0
22/10:30am 33.4 30.8 9.4 23 13.9 ENE 13 28 7 15 1006.8 1004.6 0.0
22/10:00am 31.0 28.1 9.8 27 12.2 ESE 15 20 8 11 1007.2 1005.0 0.0
22/09:30am 29.0 27.0 10.2 31 10.8 ESE 11 17 6 9 1007.4 1005.2 0.0
22/09:00am 27.9 25.1 10.1 33 10.2 ESE 15 22 8 12 1007.5 1005.3 0.0
22/08:30am 26.6 23.0 9.9 35 9.4 ESE 19 26 10 14 1007.5 1005.3 0.0
22/08:00am 25.3 21.4 9.6 37 8.8 SE 20 30 11 16 1007.7 1005.5 0.0
22/07:30am 24.8 19.6 10.3 40 8.2 ESE 28 37 15 20 1007.8 1005.6 0.0
22/07:00am 23.5 18.3 10.2 43 7.4 SE 28 35 15 19 1007.9 1005.7 0.0
22/06:30am 22.6 17.8 10.4 46 6.8 SE 26 33 14 18 1008.0 1005.8 0.0
22/06:00am 22.2 19.1 10.4 47 6.6 SE 17 22 9 12 1008.1 1005.9 0.0
22/05:30am 21.8 18.7 10.3 48 6.4 SE 17 22 9 12 1008.0 1005.8 0.0
22/05:00am 22.0 18.4 10.5 48 6.4 SE 20 30 11 16 1007.6 1005.4 0.0
22/04:30am 22.5 18.9 10.6 47 6.7 SSE 20 32 11 17 1007.1 1004.9 0.0
22/04:00am 23.0 19.4 10.4 45 7.1 SSE 20 28 11 15 1007.1 1004.9 0.0
22/03:30am 23.5 19.9 9.9 42 7.6 SE 19 28 10 15 1007.2 1005.0 0.0
22/03:00am 24.0 20.8 9.9 41 7.9 SE 17 24 9 13 1007.4 1005.2 0.0
22/02:30am 24.5 21.1 9.3 38 8.4 SE 17 22 9 12 1007.4 1005.2 0.0
22/02:00am 25.1 21.2 8.6 35 9.1 SE 19 26 10 14 1007.5 1005.3 0.0
22/01:30am 25.8 21.4 8.8 34 9.4 SE 22 32 12 17 1007.8 1005.6 0.0
22/01:00am 26.4 22.1 9.3 34 9.6 SE 22 30 12 16 1008.2 1006.0 0.0
22/12:30am 27.0 22.1 9.8 34 9.7 SE 26 37 14 20 1008.2 1006.0 0.0
22/12:00am 27.1 23.8 11.6 38 9.0 SSE 20 32 11 17 1008.3 1006.1 0.0
 
Date/Time
WST
Temp
°C
App
Temp
°C
Dew
Point
°C
Rel
Hum
%
Delta-T
°C
Wind Press
QNH
hPa
Press
MSL
hPa
Rain since
9am
mm
Dir  Spd
km/h
Gust
km/h
Spd
kts
Gust
kts
21/11:30pm 27.1 23.9 12.0 39 8.8 SSE 20 30 11 16 1008.4 1006.2 0.0
21/11:00pm 27.3 24.2 12.1 39 8.9 SSE 20 32 11 17 1008.6 1006.4 0.0
21/10:30pm 27.9 24.8 12.3 38 9.2 SSE 20 32 11 17 1008.9 1006.6 0.0
21/10:00pm 28.7 25.2 12.2 36 9.8 SSE 22 37 12 20 1008.6 1006.4 0.0
21/09:30pm 29.9 25.3 12.3 33 10.5 SSE 28 43 15 23 1008.2 1006.0 0.0
21/09:00pm 31.8 27.5 12.1 30 11.8 SSE 26 43 14 23 1007.6 1005.4 0.0
21/08:47pm 33.3 29.4 8.7 22 14.0 SSE 19 44 10 24 1007.4 1005.2 0.0
21/08:30pm 33.6 30.4 6.8 19 14.9 SSE 13 17 7 9 1006.9 1004.7 0.0
21/08:00pm 34.0 30.9 7.1 19 15.1 SSE 13 17 7 9 1006.7 1004.5 0.0
21/07:30pm 34.8 31.8 6.2 17 15.8 SSE 11 17 6 9 1006.4 1004.1 0.0
21/07:00pm 35.7 32.5 6.9 17 16.2 SSE 13 20 7 11 1006.1 1003.8 0.0
21/06:30pm 36.7 32.7 6.8 16 16.8 SSE 17 24 9 13 1005.7 1003.5 0.0
21/06:00pm 37.2 33.3 7.2 16 17.1 ESE 17 24 9 13 1005.6 1003.4 0.0
21/05:30pm 37.5 32.9 6.5 15 17.5 SE 20 28 11 15 1005.5 1003.3 0.0
21/05:00pm 37.7 33.7 6.6 15 17.6 SE 17 28 9 15 1005.5 1003.3 0.0
21/04:30pm 38.0 33.7 6.9 15 17.7 SSE 19 26 10 14 1005.6 1003.4 0.0
21/04:00pm 37.8 34.8 7.7 16 17.3 SW 13 22 7 12 1005.9 1003.6 0.0
21/03:30pm 37.6 34.9 7.5 16 17.2 ESE 11 24 6 13 1006.3 1004.0 0.0
21/03:00pm 37.1 34.2 8.0 17 16.8 ESE 13 26 7 14 1006.7 1004.5 0.0
21/02:30pm 37.2 33.5 8.1 17 16.8 SSE 17 26 9 14 1007.1 1004.9 0.0
21/02:00pm 37.5 34.3 8.3 17 16.9 SE 15 30 8 16 1007.3 1005.1 0.0
21/01:30pm 37.2 33.2 8.9 18 16.5 SE 20 32 11 17 1007.6 1005.4 0.0
21/01:00pm 37.4 34.0 9.1 18 16.6 SSE 17 30 9 16 1007.7 1005.5 0.0
21/12:30pm 36.5 32.7 9.2 19 15.9 SE 19 33 10 18 1008.0 1005.8 0.0
21/12:00pm 35.6 31.8 9.2 20 15.4 SE 19 28 10 15 1008.3 1006.1 0.0
21/11:30am 35.0 31.5 10.1 22 14.6 SE 19 30 10 16 1008.6 1006.4 0.0
21/11:00am 34.9 32.3 10.7 23 14.4 SSE 15 26 8 14 1009.0 1006.7 0.0
21/10:30am 33.9 31.2 10.5 24 13.8 S 15 22 8 12 1009.2 1007.0 0.0
21/10:00am 33.4 31.0 8.8 22 14.1 S 11 24 6 13 1009.4 1007.2 0.0
21/09:30am 32.1 29.0 9.0 24 13.2 SSW 15 30 8 16 1009.7 1007.5 0.0
21/09:00am 32.1 29.6 9.6 25 13.0 SSE 13 19 7 10 1009.7 1007.5 0.6
21/08:30am 30.2 28.1 9.7 28 11.7 SSE 11 17 6 9 1010.0 1007.8 0.6
21/08:00am 29.1 27.4 9.8 30 11.0 E 9 11 5 6 1010.0 1007.8 0.4
21/07:30am 28.5 26.4 9.7 31 10.7 ENE 11 15 6 8 1009.7 1007.5 0.4
21/07:00am 27.2 24.9 10.4 35 9.6 NNE 13 19 7 10 1009.8 1007.6 0.4
21/06:30am 26.6 23.9 10.3 36 9.3 ENE 15 24 8 13 1009.3 1007.1 0.4
21/06:00am 24.9 23.4 10.4 40 8.2 ENE 9 17 5 9 1009.3 1007.1 0.4
21/05:30am 23.9 22.9 10.9 44 7.4 E 7 11 4 6 1009.1 1006.9 0.4
21/05:00am 24.5 22.8 11.1 43 7.6 SSW 11 15 6 8 1009.7 1007.5 0.4
21/04:52am 24.5 22.8 11.1 43 7.6 S 11 15 6 8 1009.8 1007.6 0.4
21/04:42am 24.5 22.3 10.8 42 7.8 SE 13 17 7 9 1009.3 1007.1 0.4
21/04:30am 24.6 22.0 10.8 42 7.8 SSE 15 20 8 11 1009.0 1006.7 0.4
21/04:00am 24.2 21.7 11.2 44 7.4 SE 15 20 8 11 1008.3 1006.1 0.4
21/03:30am 24.4 22.8 11.7 45 7.3 SE 11 15 6 8 1008.3 1006.1 0.4
21/03:00am 24.9 22.9 11.5 43 7.7 SE 13 17 7 9 1008.5 1006.3 0.4
21/02:30am 24.8 23.6 11.7 44 7.6 SE 9 13 5 7 1008.6 1006.4 0.4
21/02:00am 25.5 23.1 11.3 41 8.2 SSE 15 19 8 10 1008.5 1006.3 0.4
21/01:50am 25.4 23.5 11.9 43 7.8 ESE 13 20 7 11 1008.6 1006.4 0.4
21/01:30am 25.9 22.5 11.3 40 8.4 S 20 30 11 16 1008.6 1006.4 0.4
21/01:00am 25.4 23.1 12.9 45 7.4 ESE 17 22 9 12 1008.6 1006.4 0.4
21/12:30am 25.7 22.6 13.5 46 7.3 ESE 22 26 12 14 1008.8 1006.5 0.4
21/12:00am 25.0 22.4 14.8 53 6.2 SE 22 28 12 15 1009.1 1006.9 0.4
 
Date/Time
WST
Temp
°C
App
Temp
°C
Dew
Point
°C
Rel
Hum
%
Delta-T
°C
Wind Press
QNH
hPa
Press
MSL
hPa
Rain since
9am
mm
Dir  Spd
km/h
Gust
km/h
Spd
kts
Gust
kts
20/11:30pm 25.5 23.7 15.5 54 6.2 ESE 19 22 10 12 1009.5 1007.3 0.4

Other formats

Comma delimited format used in spreadsheet applications
http://www.bom.gov.au/fwo/IDW60801/IDW60801.94637.axf

JavaScript Object Notation format (JSON) in row-major order
http://www.bom.gov.au/fwo/IDW60801/IDW60801.94637.json

Data quality

Most of these data are generated automatically and are frequently updated. Quality checks on data are not normally performed. It is possible for incorrect values to appear. Refer to information at About Latest Weather Observations and please check the disclaimer before using these data.